createdAt,value
2018-08-30T00:01:42.006Z,70.04
2018-08-30T00:04:11.510Z,69.81
2018-08-30T00:06:40.914Z,69.89
2018-08-30T00:09:10.214Z,70.20
2018-08-30T00:11:39.718Z,70.49
2018-08-30T00:14:09.150Z,70.64
2018-08-30T00:16:38.520Z,70.12
2018-08-30T00:19:07.779Z,69.86
2018-08-30T00:21:37.122Z,69.60
2018-08-30T00:24:06.602Z,70.41
2018-08-30T00:26:36.026Z,70.71
2018-08-30T00:29:05.428Z,69.89
2018-08-30T00:31:34.831Z,70.55
2018-08-30T00:34:04.233Z,71.01
2018-08-30T00:36:33.634Z,70.85
2018-08-30T00:39:03.035Z,70.78
2018-08-30T00:41:32.322Z,71.54
2018-08-30T00:44:01.788Z,72.99
2018-08-30T00:46:31.038Z,72.42
2018-08-30T00:49:00.439Z,72.64
2018-08-30T00:51:29.842Z,72.86
2018-08-30T00:53:59.350Z,73.40
2018-08-30T00:56:28.747Z,74.08
2018-08-30T00:58:58.457Z,74.06
2018-08-30T01:01:27.859Z,75.03
2018-08-30T01:03:57.364Z,74.55
2018-08-30T01:06:26.664Z,74.23
2018-08-30T01:08:56.065Z,74.36
2018-08-30T01:11:25.467Z,73.83
2018-08-30T01:13:54.971Z,73.45
2018-08-30T01:16:24.374Z,73.47
2018-08-30T01:18:53.775Z,73.19
2018-08-30T01:21:23.177Z,73.39
2018-08-30T01:23:52.581Z,73.85
2018-08-30T01:26:21.910Z,72.64
2018-08-30T01:28:51.193Z,73.78
2018-08-30T01:31:20.940Z,73.77
2018-08-30T01:33:50.394Z,74.70
2018-08-30T01:36:19.796Z,73.70
2018-08-30T01:38:49.311Z,74.62
2018-08-30T01:41:18.880Z,74.73
2018-08-30T01:43:48.311Z,74.58
2018-08-30T01:46:17.549Z,75.78
2018-08-30T01:48:46.907Z,74.59
2018-08-30T01:51:16.411Z,75.50
2018-08-30T01:53:45.737Z,75.33
2018-08-30T01:56:15.215Z,75.49
2018-08-30T01:58:44.694Z,75.93
2018-08-30T02:01:14.125Z,76.20
2018-08-30T02:03:43.525Z,76.01
2018-08-30T02:06:12.927Z,76.56
2018-08-30T02:08:42.533Z,76.51
2018-08-30T02:11:12.106Z,75.75
2018-08-30T02:13:41.553Z,75.61
2018-08-30T02:16:10.885Z,76.98
2018-08-30T02:18:40.346Z,77.17
2018-08-30T02:21:09.748Z,76.96
2018-08-30T02:23:39.048Z,76.67
2018-08-30T02:26:08.374Z,75.98
2018-08-30T02:28:37.666Z,75.87
2018-08-30T02:31:07.151Z,76.07
2018-08-30T02:33:36.554Z,76.28
2018-08-30T02:36:06.058Z,76.02
2018-08-30T02:38:35.460Z,76.30
2018-08-30T02:41:05.067Z,77.06
2018-08-30T02:43:34.571Z,77.07
2018-08-30T02:46:03.981Z,76.45
2018-08-30T02:48:33.210Z,76.26
2018-08-30T02:51:02.573Z,76.50
2018-08-30T02:53:31.975Z,75.37
2018-08-30T02:56:01.278Z,76.27
2018-08-30T02:58:30.676Z,74.49
2018-08-30T03:01:00.187Z,75.29
2018-08-30T03:03:29.584Z,76.77
2018-08-30T03:05:59.189Z,75.88
2018-08-30T03:08:28.592Z,77.11
2018-08-30T03:10:57.892Z,75.37
2018-08-30T03:13:27.102Z,76.20
2018-08-30T03:15:56.592Z,75.20
2018-08-30T03:18:25.996Z,76.09
2018-08-30T03:20:55.396Z,76.51
2018-08-30T03:23:24.799Z,76.38
2018-08-30T03:25:54.302Z,77.15
2018-08-30T03:28:23.704Z,76.66
2018-08-30T03:30:53.258Z,75.81
2018-08-30T03:33:22.430Z,75.81
2018-08-30T03:35:51.810Z,76.28
2018-08-30T03:38:21.210Z,76.42
2018-08-30T03:40:50.715Z,77.34
2018-08-30T03:43:20.117Z,76.17
2018-08-30T03:45:49.419Z,75.91
2018-08-30T03:48:18.921Z,76.18
2018-08-30T03:50:48.322Z,76.27
2018-08-30T03:53:17.729Z,75.83
2018-08-30T03:55:47.436Z,74.76
2018-08-30T03:58:16.782Z,75.95
2018-08-30T04:00:46.445Z,74.82
2018-08-30T04:03:15.846Z,74.41
2018-08-30T04:05:45.178Z,74.74
2018-08-30T04:08:14.440Z,75.54
2018-08-30T04:10:44.011Z,76.57
2018-08-30T04:13:13.454Z,76.05
2018-08-30T04:15:42.957Z,75.46
2018-08-30T04:18:12.360Z,74.78
2018-08-30T04:20:41.610Z,75.44
2018-08-30T04:23:10.796Z,74.80
2018-08-30T04:25:40.260Z,74.80
2018-08-30T04:28:09.665Z,74.52
2018-08-30T04:30:39.014Z,74.62
2018-08-30T04:33:08.459Z,74.67
2018-08-30T04:35:37.766Z,75.61
2018-08-30T04:38:07.342Z,76.19
2018-08-30T04:40:36.775Z,76.33
2018-08-30T04:43:06.176Z,76.34
2018-08-30T04:45:35.578Z,75.30
2018-08-30T04:48:04.980Z,75.30
2018-08-30T04:50:34.557Z,75.85
2018-08-30T04:53:03.992Z,76.04
2018-08-30T04:55:33.398Z,76.05
2018-08-30T04:58:02.792Z,74.77
2018-08-30T05:00:32.050Z,75.70
2018-08-30T05:03:01.290Z,75.36
2018-08-30T05:05:30.589Z,75.18
2018-08-30T05:07:59.909Z,75.00
2018-08-30T05:10:29.393Z,74.08
2018-08-30T05:12:58.795Z,74.32
2018-08-30T05:15:28.196Z,75.10
2018-08-30T05:17:57.497Z,75.12
2018-08-30T05:20:26.926Z,74.12
2018-08-30T05:22:56.228Z,73.38
2018-08-30T05:25:25.649Z,72.84
2018-08-30T05:27:55.004Z,72.13
2018-08-30T05:30:24.331Z,71.99
2018-08-30T05:32:54.118Z,72.42
2018-08-30T05:35:23.620Z,72.34
2018-08-30T05:37:53.838Z,72.11
2018-08-30T05:40:23.046Z,72.21
2018-08-30T05:42:52.648Z,72.00
2018-08-30T05:45:22.103Z,72.05
2018-08-30T05:47:51.652Z,72.45
2018-08-30T05:50:21.085Z,72.32
2018-08-30T05:52:50.661Z,72.50
2018-08-30T05:55:20.064Z,73.21
2018-08-30T05:57:49.567Z,72.88
2018-08-30T06:00:18.900Z,73.65
2018-08-30T06:02:48.268Z,72.62
2018-08-30T06:05:17.673Z,72.92
2018-08-30T06:07:46.936Z,71.97
2018-08-30T06:10:16.290Z,72.92
2018-08-30T06:12:45.484Z,72.60
2018-08-30T06:15:14.869Z,73.55
2018-08-30T06:17:44.577Z,72.67
2018-08-30T06:20:13.981Z,72.56
2018-08-30T06:22:43.485Z,73.10
2018-08-30T06:25:12.888Z,72.46
2018-08-30T06:27:42.292Z,71.80
2018-08-30T06:30:11.691Z,71.48
2018-08-30T06:32:41.279Z,71.12
2018-08-30T06:35:10.603Z,70.37
2018-08-30T06:37:39.998Z,70.50
2018-08-30T06:40:09.810Z,71.60
2018-08-30T06:42:39.212Z,71.73
2018-08-30T06:45:08.613Z,71.72
2018-08-30T06:47:38.016Z,71.55
2018-08-30T06:50:07.520Z,70.35
2018-08-30T06:52:36.920Z,70.87
2018-08-30T06:55:06.535Z,70.80
2018-08-30T06:57:35.932Z,71.55
2018-08-30T07:00:06.154Z,71.71
2018-08-30T07:02:35.657Z,70.94
2018-08-30T07:05:05.161Z,71.65
2018-08-30T07:07:34.563Z,71.84
2018-08-30T07:10:04.027Z,72.34
2018-08-30T07:12:33.264Z,72.26
2018-08-30T07:15:02.792Z,72.48
2018-08-30T07:17:32.275Z,71.58
2018-08-30T07:20:01.677Z,71.10
2018-08-30T07:22:31.077Z,71.28
2018-08-30T07:25:00.277Z,72.45
2018-08-30T07:27:29.780Z,71.97
2018-08-30T07:29:59.180Z,72.03
2018-08-30T07:32:28.583Z,72.08
2018-08-30T07:34:58.074Z,72.51
2018-08-30T07:37:27.166Z,71.75
2018-08-30T07:39:56.480Z,72.35
2018-08-30T07:42:25.885Z,72.72
2018-08-30T07:44:55.179Z,71.98
2018-08-30T07:47:24.586Z,71.90
2018-08-30T07:49:54.062Z,71.75
2018-08-30T07:52:23.493Z,71.39
2018-08-30T07:54:52.894Z,71.16
2018-08-30T07:57:22.426Z,70.48
2018-08-30T07:59:51.718Z,70.42
2018-08-30T08:02:21.017Z,70.51
2018-08-30T08:04:50.298Z,70.63
2018-08-30T08:07:19.852Z,71.07
2018-08-30T08:09:49.203Z,71.72
2018-08-30T08:12:18.606Z,71.03
2018-08-30T08:14:47.847Z,71.44
2018-08-30T08:17:17.264Z,70.25
2018-08-30T08:19:46.553Z,70.02
2018-08-30T08:22:15.786Z,69.98
2018-08-30T08:24:45.039Z,70.83
2018-08-30T08:27:14.404Z,70.32
2018-08-30T08:29:43.805Z,69.62
2018-08-30T08:32:13.103Z,70.73
2018-08-30T08:34:42.509Z,71.06
2018-08-30T08:37:11.994Z,71.73
2018-08-30T08:39:41.414Z,72.15
2018-08-30T08:42:10.712Z,73.49
2018-08-30T08:44:40.116Z,72.66
2018-08-30T08:47:09.518Z,73.88
2018-08-30T08:49:38.871Z,74.34
2018-08-30T08:52:08.264Z,73.83
2018-08-30T08:54:37.527Z,73.80
2018-08-30T08:57:07.134Z,72.97
2018-08-30T08:59:36.529Z,71.80
2018-08-30T09:02:05.927Z,71.82
2018-08-30T09:04:35.436Z,71.58
2018-08-30T09:07:04.679Z,72.02
2018-08-30T09:09:34.134Z,73.40
2018-08-30T09:12:03.376Z,72.92
2018-08-30T09:14:32.928Z,73.39
2018-08-30T09:17:02.339Z,72.61
2018-08-30T09:19:32.050Z,73.00
2018-08-30T09:22:01.451Z,73.17
2018-08-30T09:24:30.853Z,73.70
2018-08-30T09:27:00.265Z,73.50
2018-08-30T09:29:29.657Z,73.02
2018-08-30T09:32:00.696Z,73.62
2018-08-30T09:34:29.997Z,73.04
2018-08-30T09:36:59.400Z,72.94
2018-08-30T09:39:28.801Z,71.49
2018-08-30T09:41:58.203Z,70.54
2018-08-30T09:44:27.605Z,69.54
2018-08-30T09:46:56.908Z,68.23
2018-08-30T09:49:26.451Z,67.20
2018-08-30T09:51:56.010Z,65.33
2018-08-30T09:54:25.623Z,65.57
2018-08-30T09:56:55.091Z,65.38
2018-08-30T09:59:24.528Z,65.04
2018-08-30T10:01:59.116Z,64.97
2018-08-30T10:04:28.555Z,63.93
2018-08-30T10:06:58.043Z,64.25
2018-08-30T10:09:28.486Z,64.04
2018-08-30T10:11:58.199Z,63.07
2018-08-30T10:14:27.699Z,62.58
2018-08-30T10:16:57.203Z,61.30
2018-08-30T10:19:26.567Z,62.00
2018-08-30T10:21:56.213Z,61.70
2018-08-30T10:24:25.487Z,62.27
2018-08-30T10:26:55.004Z,62.26
2018-08-30T10:29:24.418Z,62.35
2018-08-30T10:31:53.682Z,62.36
2018-08-30T10:34:23.324Z,60.68
2018-08-30T10:36:52.788Z,59.80
2018-08-30T10:39:22.050Z,60.59
2018-08-30T10:41:51.316Z,60.45
2018-08-30T10:44:20.728Z,60.20
2018-08-30T10:46:49.928Z,59.76
2018-08-30T10:49:19.368Z,57.23
2018-08-30T10:51:48.796Z,57.52
2018-08-30T10:54:25.607Z,58.50
2018-08-30T10:56:55.009Z,57.89
2018-08-30T10:59:24.513Z,58.72
2018-08-30T11:01:53.955Z,56.69
2018-08-30T11:04:23.570Z,56.79
2018-08-30T11:06:53.067Z,57.17
2018-08-30T11:09:22.702Z,57.02
2018-08-30T11:11:52.138Z,55.35
2018-08-30T11:14:21.547Z,55.98
2018-08-30T11:16:51.045Z,56.05
2018-08-30T11:19:20.400Z,55.96
2018-08-30T11:21:49.747Z,56.49
2018-08-30T11:24:19.148Z,56.57
2018-08-30T11:26:48.596Z,55.94
2018-08-30T11:29:17.951Z,56.40
2018-08-30T11:31:47.356Z,55.30
2018-08-30T11:34:16.598Z,55.20
2018-08-30T11:36:45.815Z,55.40
2018-08-30T11:39:15.252Z,55.31
2018-08-30T11:41:44.769Z,55.42
2018-08-30T11:44:14.160Z,56.25
2018-08-30T11:46:43.560Z,56.47
2018-08-30T11:49:12.962Z,55.55
2018-08-30T11:51:42.286Z,54.88
2018-08-30T11:54:11.644Z,56.35
2018-08-30T11:56:41.066Z,56.13
2018-08-30T11:59:10.297Z,56.14
2018-08-30T12:01:39.767Z,55.85
2018-08-30T12:04:10.597Z,55.69
2018-08-30T12:06:39.983Z,56.75
2018-08-30T12:09:10.534Z,56.45
2018-08-30T12:11:40.698Z,57.55
2018-08-30T12:14:09.980Z,60.82
2018-08-30T12:16:39.661Z,63.07
2018-08-30T12:19:09.072Z,65.59
2018-08-30T12:21:38.464Z,65.75
2018-08-30T12:24:07.845Z,67.08
2018-08-30T12:26:37.438Z,64.83
2018-08-30T12:29:06.913Z,64.71
2018-08-30T12:31:36.619Z,64.41
2018-08-30T12:34:06.105Z,65.98
2018-08-30T12:36:35.507Z,65.44
2018-08-30T12:39:06.150Z,66.21
2018-08-30T12:41:35.533Z,64.32
2018-08-30T12:44:04.934Z,64.02
2018-08-30T12:46:34.481Z,64.94
2018-08-30T12:49:03.992Z,63.75
2018-08-30T12:51:33.456Z,63.22
2018-08-30T12:54:02.755Z,63.17
2018-08-30T12:56:38.495Z,62.27
2018-08-30T12:59:13.202Z,60.79
2018-08-30T13:01:42.543Z,60.71
2018-08-30T13:04:11.801Z,60.75
2018-08-30T13:06:45.812Z,60.41
2018-08-30T13:09:16.480Z,60.31
2018-08-30T13:11:45.787Z,59.18
2018-08-30T13:14:15.127Z,57.86
2018-08-30T13:16:44.385Z,56.64
2018-08-30T13:19:13.768Z,57.96
2018-08-30T13:21:43.235Z,56.50
2018-08-30T13:24:12.775Z,55.99
2018-08-30T13:26:42.309Z,56.02
2018-08-30T13:29:11.578Z,55.42
2018-08-30T13:31:41.383Z,56.10
2018-08-30T13:34:10.823Z,56.87
2018-08-30T13:36:40.256Z,55.47
2018-08-30T13:39:10.507Z,55.71
2018-08-30T13:41:40.392Z,56.41
2018-08-30T13:44:10.874Z,56.09
2018-08-30T13:46:41.356Z,53.59
2018-08-30T13:49:11.570Z,54.40
2018-08-30T13:51:41.062Z,53.10
2018-08-30T13:54:10.631Z,51.71
2018-08-30T13:56:40.207Z,50.51
2018-08-30T13:59:09.638Z,51.27
2018-08-30T14:01:39.075Z,51.12
2018-08-30T14:04:08.416Z,49.57
2018-08-30T14:06:37.662Z,49.55
2018-08-30T14:09:07.271Z,49.06
2018-08-30T14:11:36.468Z,49.81
2018-08-30T14:14:05.808Z,51.50
2018-08-30T14:16:34.919Z,52.07
2018-08-30T14:19:04.348Z,52.18
2018-08-30T14:21:33.896Z,51.73
2018-08-30T14:24:03.386Z,50.09
2018-08-30T14:26:32.808Z,48.77
2018-08-30T14:29:02.341Z,48.43
2018-08-30T14:31:31.740Z,44.81
2018-08-30T14:34:00.947Z,45.07
2018-08-30T14:36:30.530Z,43.86
2018-08-30T14:38:59.785Z,43.86
2018-08-30T14:41:29.186Z,43.51
2018-08-30T14:43:58.287Z,43.00
2018-08-30T14:46:27.534Z,43.62
2018-08-30T14:48:56.837Z,44.22
2018-08-30T14:51:26.092Z,44.07
2018-08-30T14:53:56.845Z,41.77
2018-08-30T14:56:26.067Z,42.90
2018-08-30T14:58:55.571Z,43.23
2018-08-30T15:01:25.179Z,42.52
2018-08-30T15:03:54.494Z,42.56
2018-08-30T15:06:24.019Z,41.61
2018-08-30T15:08:53.286Z,40.35
2018-08-30T15:11:22.932Z,40.12
2018-08-30T15:13:52.393Z,39.32
2018-08-30T15:16:21.950Z,40.25
2018-08-30T15:18:51.300Z,39.61
2018-08-30T15:21:20.600Z,40.32
2018-08-30T15:23:49.901Z,40.58
2018-08-30T15:26:19.405Z,41.13
2018-08-30T15:28:48.859Z,40.39
2018-08-30T15:31:18.308Z,41.41
2018-08-30T15:33:47.820Z,40.44
2018-08-30T15:36:17.319Z,40.10
2018-08-30T15:38:46.614Z,39.57
2018-08-30T15:41:16.216Z,39.07
2018-08-30T15:43:45.420Z,39.67
2018-08-30T15:46:14.754Z,38.85
2018-08-30T15:48:44.175Z,38.43
2018-08-30T15:51:13.625Z,38.93
2018-08-30T15:53:43.102Z,39.37
2018-08-30T15:56:12.635Z,39.20
2018-08-30T15:58:42.139Z,38.88
2018-08-30T16:01:11.648Z,38.72
2018-08-30T16:03:41.355Z,39.84
2018-08-30T16:06:11.889Z,40.20
2018-08-30T16:08:41.388Z,40.04
2018-08-30T16:11:11.763Z,39.52
2018-08-30T16:13:41.213Z,39.62
2018-08-30T16:16:10.787Z,39.26
2018-08-30T16:18:40.341Z,38.96
2018-08-30T16:21:09.934Z,38.11
2018-08-30T16:23:39.540Z,38.61
2018-08-30T16:26:10.303Z,39.36
2018-08-30T16:28:39.855Z,38.69
2018-08-30T16:31:09.450Z,38.12
2018-08-30T16:33:38.786Z,38.40
2018-08-30T16:36:08.493Z,38.24
2018-08-30T16:38:38.047Z,39.42
2018-08-30T16:41:07.708Z,38.90
2018-08-30T16:43:37.211Z,39.18
2018-08-30T16:46:07.433Z,40.63
2018-08-30T16:48:36.998Z,39.62
2018-08-30T16:51:06.294Z,39.10
2018-08-30T16:53:35.743Z,39.47
2018-08-30T16:56:05.423Z,40.30
2018-08-30T16:58:34.850Z,40.87
2018-08-30T17:01:04.254Z,40.72
2018-08-30T17:03:33.654Z,40.48
2018-08-30T17:06:04.187Z,40.28
2018-08-30T17:08:33.417Z,41.49
2018-08-30T17:11:02.683Z,41.16
2018-08-30T17:13:32.084Z,41.74
2018-08-30T17:16:01.399Z,41.12
2018-08-30T17:18:30.888Z,41.28
2018-08-30T17:21:00.392Z,41.86
2018-08-30T17:23:29.647Z,41.76
2018-08-30T17:25:58.950Z,41.58
2018-08-30T17:28:28.212Z,41.22
2018-08-30T17:30:57.794Z,41.98
2018-08-30T17:33:27.161Z,41.58
2018-08-30T17:35:56.804Z,41.77
2018-08-30T17:38:26.310Z,41.80
2018-08-30T17:40:56.019Z,41.53
2018-08-30T17:43:25.527Z,41.35
2018-08-30T17:45:55.140Z,41.95
2018-08-30T17:48:24.633Z,42.71
2018-08-30T17:50:54.169Z,43.03
2018-08-30T17:53:23.747Z,42.49
2018-08-30T17:55:53.423Z,42.67
2018-08-30T17:58:23.059Z,42.89
2018-08-30T18:00:52.451Z,43.35
2018-08-30T18:03:21.966Z,43.15
2018-08-30T18:05:51.326Z,44.22
2018-08-30T18:08:20.623Z,43.71
2018-08-30T18:10:55.498Z,43.54
2018-08-30T18:13:24.899Z,44.60
2018-08-30T18:15:54.151Z,44.87
2018-08-30T18:18:23.520Z,45.00
2018-08-30T18:20:53.207Z,44.87
2018-08-30T18:23:22.591Z,45.99
2018-08-30T18:25:52.012Z,46.21
2018-08-30T18:28:21.514Z,45.97
2018-08-30T18:30:50.857Z,45.98
2018-08-30T18:33:20.321Z,45.53
2018-08-30T18:35:49.621Z,46.33
2018-08-30T18:38:19.124Z,46.05
2018-08-30T18:40:48.734Z,46.78
2018-08-30T18:43:19.300Z,47.25
2018-08-30T18:45:49.073Z,47.79
2018-08-30T18:48:18.780Z,48.37
2018-08-30T18:50:48.284Z,47.72
2018-08-30T18:53:17.539Z,48.33
2018-08-30T18:55:47.192Z,48.29
2018-08-30T18:58:16.593Z,49.57
2018-08-30T19:00:46.095Z,50.06
2018-08-30T19:03:15.552Z,50.03
2018-08-30T19:05:44.931Z,50.49
2018-08-30T19:08:14.407Z,51.31
2018-08-30T19:10:44.013Z,51.55
2018-08-30T19:13:13.453Z,51.89
2018-08-30T19:15:48.245Z,51.85
2018-08-30T19:18:23.385Z,51.89
2018-08-30T19:20:53.023Z,52.10
2018-08-30T19:23:24.402Z,52.32
2018-08-30T19:25:55.779Z,51.83
2018-08-30T19:28:26.416Z,51.77
2018-08-30T19:30:55.818Z,52.18
2018-08-30T19:33:25.322Z,52.78
2018-08-30T19:36:00.151Z,52.48
2018-08-30T19:38:29.758Z,52.76
2018-08-30T19:41:05.613Z,53.25
2018-08-30T19:43:35.062Z,54.04
2018-08-30T19:46:06.053Z,54.06
2018-08-30T19:48:37.943Z,54.35
2018-08-30T19:51:07.520Z,54.25
2018-08-30T19:53:37.128Z,53.94
2018-08-30T19:56:07.143Z,54.23
2018-08-30T19:58:36.608Z,54.08
2018-08-30T20:01:06.059Z,54.73
2018-08-30T20:03:35.554Z,55.14
2018-08-30T20:06:05.263Z,55.34
2018-08-30T20:08:34.679Z,55.43
2018-08-30T20:11:04.475Z,55.51
2018-08-30T20:13:33.944Z,55.55
2018-08-30T20:16:03.486Z,56.27
2018-08-30T20:18:32.936Z,56.96
2018-08-30T20:21:02.394Z,56.85
2018-08-30T20:23:31.793Z,56.88
2018-08-30T20:26:01.307Z,57.35
2018-08-30T20:28:30.700Z,57.32
2018-08-30T20:31:00.192Z,58.39
2018-08-30T20:33:29.605Z,58.45
2018-08-30T20:35:59.008Z,58.31
2018-08-30T20:38:28.615Z,58.23
2018-08-30T20:40:58.033Z,58.26
2018-08-30T20:43:27.524Z,58.74
2018-08-30T20:45:57.637Z,58.63
2018-08-30T20:48:27.043Z,58.47
2018-08-30T20:50:56.263Z,58.50
2018-08-30T20:53:25.599Z,58.54
2018-08-30T20:55:55.044Z,58.60
2018-08-30T20:58:24.650Z,58.44
2018-08-30T21:00:53.914Z,58.83
2018-08-30T21:03:23.454Z,58.79
2018-08-30T21:05:52.855Z,58.95
2018-08-30T21:08:22.360Z,59.16
2018-08-30T21:10:52.787Z,59.01
2018-08-30T21:13:22.087Z,59.21
2018-08-30T21:15:51.535Z,59.13
2018-08-30T21:18:21.094Z,59.39
2018-08-30T21:20:50.549Z,59.73
2018-08-30T21:23:19.999Z,59.50
2018-08-30T21:25:49.402Z,59.77
2018-08-30T21:28:18.907Z,59.52
2018-08-30T21:30:48.238Z,59.38
2018-08-30T21:33:17.916Z,58.84
2018-08-30T21:35:58.798Z,58.98
2018-08-30T21:38:28.190Z,60.05
2018-08-30T21:43:31.092Z,60.77
2018-08-30T21:46:00.491Z,61.49
2018-08-30T21:48:29.994Z,61.03
2018-08-30T21:50:59.500Z,61.03
2018-08-30T21:53:28.900Z,61.55
2018-08-30T21:55:58.406Z,61.21
2018-08-30T21:58:27.910Z,61.83
2018-08-30T22:00:57.358Z,62.29
2018-08-30T22:03:26.687Z,62.07
2018-08-30T22:05:56.064Z,61.96
2018-08-30T22:08:25.570Z,62.36
2018-08-30T22:10:55.125Z,62.15
2018-08-30T22:13:24.628Z,62.43
2018-08-30T22:15:53.883Z,62.23
2018-08-30T22:18:23.537Z,62.11
2018-08-30T22:20:52.908Z,61.42
2018-08-30T22:23:22.296Z,61.12
2018-08-30T22:25:51.843Z,61.28
2018-08-30T22:28:21.348Z,61.59
2018-08-30T22:30:50.751Z,62.59
2018-08-30T22:33:20.254Z,62.26
2018-08-30T22:35:49.761Z,62.17
2018-08-30T22:38:26.028Z,62.04
2018-08-30T22:40:55.661Z,63.33
2018-08-30T22:43:25.004Z,62.99
2018-08-30T22:45:54.431Z,63.17
2018-08-30T22:48:23.936Z,63.41
2018-08-30T22:50:53.393Z,62.98
2018-08-30T22:53:22.906Z,63.35
2018-08-30T22:55:52.551Z,63.23
2018-08-30T22:58:22.159Z,63.17
2018-08-30T23:00:51.615Z,64.07
2018-08-30T23:03:21.277Z,63.42
2018-08-30T23:05:51.760Z,64.22
2018-08-30T23:08:21.506Z,64.17
2018-08-30T23:10:51.114Z,63.74
2018-08-30T23:13:20.683Z,64.04
2018-08-30T23:15:50.430Z,64.07
2018-08-30T23:18:19.935Z,64.45
2018-08-30T23:20:49.446Z,63.69
2018-08-30T23:23:18.842Z,63.45
2018-08-30T23:25:48.447Z,63.42
2018-08-30T23:28:17.951Z,63.75
2018-08-30T23:30:47.319Z,63.53
2018-08-30T23:33:16.686Z,63.97
2018-08-30T23:35:46.155Z,64.23
2018-08-30T23:38:15.621Z,64.96
2018-08-30T23:40:44.961Z,63.72
2018-08-30T23:43:14.464Z,63.93
2018-08-30T23:45:43.916Z,63.93
2018-08-30T23:48:13.208Z,64.74
2018-08-30T23:50:42.774Z,65.11
2018-08-30T23:53:12.277Z,64.32
2018-08-30T23:55:41.780Z,64.11
2018-08-30T23:59:24.401Z,64.28
